createdAt,value
2022-09-02T00:01:17.982Z,8.50
2022-09-02T00:03:44.984Z,7.32
2022-09-02T00:06:11.782Z,11.30
2022-09-02T00:08:39.147Z,7.93
2022-09-02T00:11:06.887Z,10.15
2022-09-02T00:13:35.370Z,11.20
2022-09-02T00:16:03.447Z,7.15
2022-09-02T00:18:30.623Z,8.40
2022-09-02T00:20:57.253Z,6.90
2022-09-02T00:23:23.802Z,7.35
2022-09-02T00:25:53.914Z,6.00
2022-09-02T00:28:20.466Z,7.60
2022-09-02T00:30:47.342Z,6.97
2022-09-02T00:33:14.047Z,6.38
2022-09-02T00:35:43.407Z,6.55
2022-09-02T00:38:10.971Z,7.75
2022-09-02T00:40:38.298Z,7.28
2022-09-02T00:43:08.602Z,7.00
2022-09-02T00:45:36.614Z,6.70
2022-09-02T00:48:04.443Z,6.95
2022-09-02T00:50:35.762Z,6.80
2022-09-02T00:53:09.694Z,6.32
2022-09-02T00:55:45.042Z,7.90
2022-09-02T00:58:22.509Z,7.78
2022-09-02T01:00:56.605Z,7.60
2022-09-02T01:03:26.929Z,7.07
2022-09-02T01:05:56.075Z,7.82
2022-09-02T01:08:32.690Z,7.72
2022-09-02T01:10:59.357Z,7.03
2022-09-02T01:13:29.521Z,7.82
2022-09-02T01:16:02.975Z,7.70
2022-09-02T01:18:31.078Z,7.87
2022-09-02T01:21:00.486Z,7.68
2022-09-02T01:23:28.554Z,8.43
2022-09-02T01:26:00.643Z,7.05
2022-09-02T01:28:27.588Z,7.68
2022-09-02T01:30:54.929Z,7.55
2022-09-02T01:33:23.232Z,7.90
2022-09-02T01:35:52.221Z,8.38
2022-09-02T01:38:20.272Z,9.27
2022-09-02T01:40:47.779Z,8.75
2022-09-02T01:43:18.870Z,8.50
2022-09-02T01:45:47.794Z,10.38
2022-09-02T01:48:16.082Z,9.38
2022-09-02T01:50:55.782Z,10.68
2022-09-02T01:53:23.045Z,8.13
2022-09-02T01:55:49.960Z,9.38
2022-09-02T01:58:16.660Z,9.63
2022-09-02T02:00:43.281Z,8.85
2022-09-02T02:03:09.845Z,9.02
2022-09-02T02:05:37.146Z,9.70
2022-09-02T02:08:04.374Z,9.85
2022-09-02T02:10:31.112Z,8.25
2022-09-02T02:12:57.654Z,9.05
2022-09-02T02:17:50.627Z,10.43
2022-09-02T02:20:18.623Z,9.60
2022-09-02T02:22:46.076Z,8.30
2022-09-02T02:25:15.052Z,8.45
2022-09-02T02:27:43.586Z,8.93
2022-09-02T02:30:12.638Z,12.63
2022-09-02T02:32:39.225Z,18.63
2022-09-02T02:35:06.579Z,14.98
2022-09-02T02:37:33.546Z,13.82
2022-09-02T02:40:00.221Z,10.20
2022-09-02T02:42:26.913Z,16.55
2022-09-02T02:44:53.542Z,13.50
2022-09-02T02:47:20.139Z,29.23
2022-09-02T02:49:46.873Z,16.73
2022-09-02T02:52:13.778Z,15.77
2022-09-02T02:54:40.826Z,12.05
2022-09-02T02:57:08.919Z,12.25
2022-09-02T02:59:36.927Z,11.18
2022-09-02T03:02:05.145Z,12.93
2022-09-02T03:04:31.826Z,10.98
2022-09-02T03:06:58.893Z,11.90
2022-09-02T03:09:25.563Z,10.77
2022-09-02T03:11:52.145Z,10.50
2022-09-02T03:14:19.016Z,9.82
2022-09-02T03:16:45.599Z,14.55
2022-09-02T03:19:14.206Z,12.70
2022-09-02T03:21:41.734Z,11.45
2022-09-02T03:24:10.420Z,16.80
2022-09-02T03:26:37.226Z,13.13
2022-09-02T03:29:04.546Z,20.10
2022-09-02T03:31:31.202Z,17.65
2022-09-02T03:33:57.796Z,14.40
2022-09-02T03:36:36.471Z,9.80
2022-09-02T03:39:04.426Z,12.65
2022-09-02T03:41:30.983Z,10.48
2022-09-02T03:43:57.777Z,9.02
2022-09-02T03:46:25.489Z,9.93
2022-09-02T03:48:52.343Z,17.25
2022-09-02T03:51:21.187Z,10.75
2022-09-02T03:53:48.086Z,12.70
2022-09-02T03:56:16.439Z,14.25
2022-09-02T03:58:46.699Z,11.30
2022-09-02T04:01:17.751Z,17.15
2022-09-02T04:03:44.408Z,12.32
2022-09-02T04:06:12.963Z,12.02
2022-09-02T04:08:41.609Z,9.52
2022-09-02T04:11:10.455Z,12.02
2022-09-02T04:13:37.206Z,8.55
2022-09-02T04:16:10.574Z,9.27
2022-09-02T04:18:37.554Z,9.13
2022-09-02T04:21:04.571Z,9.60
2022-09-02T04:23:32.338Z,9.10
2022-09-02T04:26:03.145Z,9.52
2022-09-02T04:28:29.701Z,9.57
2022-09-02T04:30:56.242Z,9.10
2022-09-02T04:33:22.901Z,8.23
2022-09-02T04:35:49.565Z,9.05
2022-09-02T04:38:17.040Z,10.27
2022-09-02T04:40:45.925Z,10.00
2022-09-02T04:43:13.421Z,9.80
2022-09-02T04:45:41.530Z,9.65
2022-09-02T04:48:08.137Z,10.27
2022-09-02T04:50:37.307Z,15.90
2022-09-02T04:53:06.338Z,16.20
2022-09-02T04:55:33.031Z,10.80
2022-09-02T04:57:59.766Z,9.35
2022-09-02T05:00:26.338Z,9.55
2022-09-02T05:02:55.834Z,11.90
2022-09-02T05:05:22.675Z,9.30
2022-09-02T05:07:49.255Z,10.45
2022-09-02T05:10:16.089Z,10.68
2022-09-02T05:12:43.584Z,10.68
2022-09-02T05:15:12.199Z,12.88
2022-09-02T05:17:39.295Z,13.50
2022-09-02T05:20:08.595Z,16.95
2022-09-02T05:22:36.403Z,13.20
2022-09-02T05:25:05.576Z,19.88
2022-09-02T05:27:33.195Z,15.85
2022-09-02T05:29:59.802Z,14.40
2022-09-02T05:32:27.779Z,16.63
2022-09-02T05:34:55.971Z,16.00
2022-09-02T05:37:24.563Z,18.45
2022-09-02T05:39:51.603Z,18.65
2022-09-02T05:42:20.390Z,22.60
2022-09-02T05:44:47.113Z,20.52
2022-09-02T05:47:13.631Z,19.65
2022-09-02T05:49:40.160Z,26.30
2022-09-02T05:52:10.215Z,27.25
2022-09-02T05:54:38.988Z,27.17
2022-09-02T05:57:09.277Z,23.98
2022-09-02T05:59:39.066Z,26.10
2022-09-02T06:02:06.432Z,33.40
2022-09-02T06:04:37.703Z,28.30
2022-09-02T06:07:04.416Z,29.17
2022-09-02T06:09:30.954Z,29.92
2022-09-02T06:11:58.141Z,31.15
2022-09-02T06:14:25.747Z,29.48
2022-09-02T06:16:54.908Z,25.08
2022-09-02T06:19:22.537Z,32.55
2022-09-02T06:21:49.310Z,36.88
2022-09-02T06:24:16.067Z,35.45
2022-09-02T06:26:43.232Z,40.88
2022-09-02T06:29:10.983Z,36.45
2022-09-02T06:31:40.132Z,42.78
2022-09-02T06:34:06.642Z,36.92
2022-09-02T06:36:33.227Z,34.40
2022-09-02T06:39:03.102Z,34.60
2022-09-02T06:41:32.128Z,35.33
2022-09-02T06:44:03.602Z,41.55
2022-09-02T06:46:40.604Z,37.97
2022-09-02T06:49:08.699Z,38.38
2022-09-02T06:51:42.223Z,36.67
2022-09-02T06:54:14.051Z,38.47
2022-09-02T06:56:44.877Z,41.97
2022-09-02T06:59:14.569Z,37.00
2022-09-02T07:01:42.235Z,42.63
2022-09-02T07:04:27.339Z,37.85
2022-09-02T07:06:55.139Z,40.97
2022-09-02T07:09:31.091Z,40.60
2022-09-02T07:12:04.305Z,40.35
2022-09-02T07:14:32.139Z,53.17
2022-09-02T07:17:00.194Z,44.08
2022-09-02T07:19:27.351Z,43.15
2022-09-02T07:21:54.403Z,45.92
2022-09-02T07:24:21.669Z,44.42
2022-09-02T07:26:48.678Z,48.85
2022-09-02T07:29:15.782Z,43.22
2022-09-02T07:31:44.753Z,48.83
2022-09-02T07:34:11.975Z,59.55
2022-09-02T07:36:38.629Z,68.07
2022-09-02T07:39:07.857Z,71.95
2022-09-02T07:41:35.528Z,69.65
2022-09-02T07:44:03.500Z,52.10
2022-09-02T07:46:31.658Z,49.75
2022-09-02T07:49:05.005Z,61.03
2022-09-02T07:51:37.683Z,55.85
2022-09-02T07:54:06.930Z,79.90
2022-09-02T07:56:33.656Z,59.70
2022-09-02T07:59:00.279Z,59.17
2022-09-02T08:01:27.406Z,64.05
2022-09-02T08:03:54.057Z,59.33
2022-09-02T08:06:33.745Z,68.53
2022-09-02T08:09:03.941Z,72.72
2022-09-02T08:11:32.751Z,60.17
2022-09-02T08:14:00.604Z,72.93
2022-09-02T08:16:27.251Z,91.75
2022-09-02T08:18:53.955Z,70.65
2022-09-02T08:21:20.474Z,88.93
2022-09-02T08:23:49.263Z,64.72
2022-09-02T08:26:17.914Z,72.85
2022-09-02T08:28:44.534Z,76.35
2022-09-02T08:31:11.137Z,86.07
2022-09-02T08:33:37.762Z,69.93
2022-09-02T08:36:11.141Z,95.80
2022-09-02T08:38:38.167Z,74.50
2022-09-02T08:41:20.984Z,58.20
2022-09-02T08:43:48.964Z,88.07
2022-09-02T08:46:18.522Z,66.53
2022-09-02T08:49:10.813Z,81.70
2022-09-02T08:51:53.936Z,83.22
2022-09-02T08:54:41.607Z,74.32
2022-09-02T08:57:10.503Z,93.22
2022-09-02T08:59:38.211Z,65.03
2022-09-02T09:02:16.746Z,78.95
2022-09-02T09:05:06.303Z,73.07
2022-09-02T09:07:55.241Z,86.03
2022-09-02T09:10:30.826Z,90.55
2022-09-02T09:13:15.309Z,72.38
2022-09-02T09:18:18.331Z,75.75
2022-09-02T09:20:46.387Z,89.55
2022-09-02T09:23:22.000Z,90.45
2022-09-02T09:25:52.271Z,92.90
2022-09-02T09:28:18.943Z,97.05
2022-09-02T09:30:45.568Z,102.38
2022-09-02T09:33:17.457Z,101.50
2022-09-02T09:35:56.047Z,108.68
2022-09-02T09:38:31.023Z,101.55
2022-09-02T09:41:20.603Z,103.30
2022-09-02T09:43:47.629Z,102.50
2022-09-02T09:46:26.620Z,108.25
2022-09-02T09:48:53.430Z,110.65
2022-09-02T09:51:20.272Z,110.93
2022-09-02T09:53:47.231Z,116.45
2022-09-02T09:56:13.778Z,132.77
2022-09-02T09:58:40.228Z,138.30
2022-09-02T10:01:27.940Z,136.95
2022-09-02T10:04:02.720Z,144.40
2022-09-02T10:06:32.258Z,155.25
2022-09-02T10:09:03.305Z,170.57
2022-09-02T10:11:35.626Z,150.35
2022-09-02T10:14:08.611Z,145.70
2022-09-02T10:16:47.385Z,157.57
2022-09-02T10:19:34.324Z,154.95
2022-09-02T10:22:09.858Z,158.43
2022-09-02T10:25:33.002Z,153.70
2022-09-02T10:28:37.253Z,141.95
2022-09-02T10:31:22.173Z,128.07
2022-09-02T10:34:17.889Z,135.85
2022-09-02T10:37:27.148Z,134.80
2022-09-02T10:39:56.135Z,141.65
2022-09-02T10:42:44.294Z,139.20
2022-09-02T10:45:24.808Z,142.82
2022-09-02T10:48:18.774Z,139.68
2022-09-02T10:50:58.150Z,148.43
2022-09-02T10:53:48.197Z,150.93
2022-09-02T10:56:21.488Z,147.05
2022-09-02T10:58:48.718Z,147.80
2022-09-02T11:01:25.376Z,160.38
2022-09-02T11:04:16.378Z,177.90
2022-09-02T11:07:02.373Z,148.73
2022-09-02T11:09:50.759Z,150.02
2022-09-02T11:12:34.946Z,154.48
2022-09-02T11:18:02.136Z,143.85
2022-09-02T11:20:31.743Z,144.25
2022-09-02T11:23:18.926Z,148.00
2022-09-02T11:25:58.107Z,161.85
2022-09-02T11:28:28.698Z,171.45
2022-09-02T11:31:06.846Z,180.15
2022-09-02T11:33:52.803Z,175.13
2022-09-02T11:36:19.826Z,192.57
2022-09-02T11:39:11.227Z,186.38
2022-09-02T11:41:56.502Z,178.95
2022-09-02T11:44:54.022Z,173.80
2022-09-02T11:47:26.865Z,177.23
2022-09-02T11:50:41.011Z,154.88
2022-09-02T11:53:31.489Z,185.70
2022-09-02T11:56:04.234Z,138.80
2022-09-02T11:58:34.199Z,158.45
2022-09-02T12:01:25.878Z,140.27
2022-09-02T12:04:48.457Z,125.78
2022-09-02T12:07:08.570Z,133.35
2022-09-02T12:09:48.478Z,110.20
2022-09-02T12:12:36.709Z,82.75
2022-09-02T12:15:06.558Z,74.82
2022-09-02T12:18:05.487Z,57.55
2022-09-02T12:20:41.661Z,53.40
2022-09-02T12:23:55.110Z,53.30
2022-09-02T12:26:44.846Z,54.22
2022-09-02T12:29:18.763Z,52.35
2022-09-02T12:31:53.037Z,55.33
2022-09-02T12:34:25.588Z,62.10
2022-09-02T12:36:57.125Z,71.28
2022-09-02T12:39:23.701Z,65.95
2022-09-02T12:42:11.809Z,66.43
2022-09-02T12:45:06.670Z,62.35
2022-09-02T12:48:00.764Z,55.20
2022-09-02T12:50:27.307Z,57.53
2022-09-02T12:53:31.399Z,56.50
2022-09-02T12:56:13.124Z,58.10
2022-09-02T12:58:45.629Z,50.38
2022-09-02T13:01:31.053Z,58.95
2022-09-02T13:04:11.603Z,52.53
2022-09-02T13:06:41.167Z,46.58
2022-09-02T13:09:45.225Z,38.08
2022-09-02T13:12:49.412Z,33.30
2022-09-02T13:16:00.684Z,24.83
2022-09-02T13:18:42.371Z,22.38
2022-09-02T13:21:21.991Z,22.05
2022-09-02T13:23:54.419Z,22.13
2022-09-02T13:26:49.263Z,22.83
2022-09-02T13:29:45.306Z,21.30
2022-09-02T13:32:24.196Z,22.80
2022-09-02T13:34:55.124Z,22.02
2022-09-02T13:37:43.479Z,22.10
2022-09-02T13:40:23.663Z,20.92
2022-09-02T13:42:58.407Z,21.52
2022-09-02T13:45:30.861Z,23.77
2022-09-02T13:48:05.980Z,23.65
2022-09-02T13:50:33.909Z,22.73
2022-09-02T13:55:53.926Z,23.65
2022-09-02T13:58:30.963Z,25.13
2022-09-02T14:01:02.215Z,23.25
2022-09-02T14:03:32.582Z,22.23
2022-09-02T14:05:59.990Z,22.80
2022-09-02T14:08:29.186Z,22.80
2022-09-02T14:10:58.357Z,22.65
2022-09-02T14:13:25.361Z,22.42
2022-09-02T14:15:51.978Z,22.20
2022-09-02T14:18:24.942Z,21.95
2022-09-02T14:21:23.802Z,22.77
2022-09-02T14:23:52.124Z,22.08
2022-09-02T14:26:32.188Z,21.40
2022-09-02T14:28:59.243Z,21.38
2022-09-02T14:31:30.863Z,22.48
2022-09-02T14:33:58.029Z,24.08
2022-09-02T14:36:24.495Z,24.00
2022-09-02T14:38:57.274Z,24.92
2022-09-02T14:41:26.034Z,24.50
2022-09-02T14:43:58.974Z,28.55
2022-09-02T14:46:32.605Z,28.75
2022-09-02T14:52:00.080Z,44.67
2022-09-02T14:54:44.860Z,51.20
2022-09-02T14:57:33.015Z,48.95
2022-09-02T15:00:00.965Z,69.65
2022-09-02T15:02:27.511Z,57.83
2022-09-02T15:04:58.386Z,64.18
2022-09-02T15:07:25.692Z,70.13
2022-09-02T15:09:53.220Z,85.15
2022-09-02T15:12:26.763Z,86.40
2022-09-02T15:14:54.143Z,93.05
2022-09-02T15:17:21.049Z,89.97
2022-09-02T15:19:48.428Z,105.35
2022-09-02T15:22:16.464Z,103.43
2022-09-02T15:24:46.967Z,96.28
2022-09-02T15:27:14.321Z,103.05
2022-09-02T15:29:44.023Z,111.05
2022-09-02T15:32:10.551Z,132.07
2022-09-02T15:34:37.137Z,121.93
2022-09-02T15:37:03.719Z,126.50
2022-09-02T15:39:30.778Z,136.27
2022-09-02T15:41:57.375Z,160.25
2022-09-02T15:44:25.903Z,157.55
2022-09-02T15:46:55.885Z,163.90
2022-09-02T15:49:26.242Z,150.68
2022-09-02T15:51:55.230Z,138.65
2022-09-02T15:54:23.582Z,143.10
2022-09-02T15:56:55.890Z,131.57
2022-09-02T15:59:23.360Z,140.85
2022-09-02T16:01:52.901Z,138.80
2022-09-02T16:04:19.513Z,129.65
2022-09-02T16:06:49.145Z,128.05
2022-09-02T16:09:17.902Z,142.00
2022-09-02T16:11:56.296Z,162.02
2022-09-02T16:14:24.092Z,153.00
2022-09-02T16:16:53.349Z,187.18
2022-09-02T16:19:21.560Z,208.60
2022-09-02T16:21:49.269Z,236.43
2022-09-02T16:24:16.122Z,253.65
2022-09-02T16:26:42.706Z,264.15
2022-09-02T16:29:13.721Z,267.63
2022-09-02T16:31:42.663Z,287.48
2022-09-02T16:34:11.873Z,320.95
2022-09-02T16:36:41.682Z,331.27
2022-09-02T16:39:08.940Z,342.77
2022-09-02T16:41:42.210Z,358.80
2022-09-02T16:44:11.920Z,339.90
2022-09-02T16:46:42.576Z,350.40
2022-09-02T16:49:13.692Z,377.52
2022-09-02T16:51:41.290Z,348.83
2022-09-02T16:54:09.450Z,353.83
2022-09-02T16:56:44.734Z,355.52
2022-09-02T16:59:12.800Z,349.10
2022-09-02T17:01:40.784Z,363.48
2022-09-02T17:04:08.620Z,378.40
2022-09-02T17:06:41.295Z,350.30
2022-09-02T17:09:09.024Z,346.75
2022-09-02T17:11:39.461Z,351.80
2022-09-02T17:14:15.248Z,374.85
2022-09-02T17:16:48.459Z,396.98
2022-09-02T17:19:21.355Z,422.27
2022-09-02T17:21:52.966Z,372.30
2022-09-02T17:24:22.685Z,392.13
2022-09-02T17:26:51.747Z,394.50
2022-09-02T17:32:08.093Z,392.02
2022-09-02T17:34:34.873Z,381.42
2022-09-02T17:37:01.564Z,447.65
2022-09-02T17:39:28.230Z,451.77
2022-09-02T17:41:54.841Z,464.05
2022-09-02T17:44:23.311Z,445.90
2022-09-02T17:46:51.282Z,429.85
2022-09-02T17:49:18.388Z,531.25
2022-09-02T17:51:46.596Z,487.27
2022-09-02T17:54:14.416Z,464.17
2022-09-02T17:57:01.487Z,473.88
2022-09-02T17:59:46.687Z,471.20
2022-09-02T18:02:33.277Z,495.35
2022-09-02T18:05:18.087Z,416.77
2022-09-02T18:08:08.797Z,492.25
2022-09-02T18:10:47.014Z,527.95
2022-09-02T18:13:19.134Z,489.20
2022-09-02T18:15:59.320Z,463.35
2022-09-02T18:18:28.217Z,400.42
2022-09-02T18:21:04.198Z,441.15
2022-09-02T18:23:47.374Z,404.70
2022-09-02T18:26:49.350Z,457.80
2022-09-02T18:29:39.298Z,442.30
2022-09-02T18:32:17.637Z,415.67
2022-09-02T18:35:05.653Z,435.88
2022-09-02T18:37:55.629Z,412.30
2022-09-02T18:40:39.771Z,383.40
2022-09-02T18:43:25.271Z,369.67
2022-09-02T18:45:56.885Z,398.63
2022-09-02T18:48:34.830Z,388.10
2022-09-02T18:51:24.334Z,388.58
2022-09-02T18:54:34.017Z,371.17
2022-09-02T18:57:07.719Z,337.23
2022-09-02T18:59:42.041Z,325.77
2022-09-02T19:05:01.389Z,273.50
2022-09-02T19:07:47.135Z,277.63
2022-09-02T19:10:14.172Z,236.15
2022-09-02T19:12:41.075Z,245.82
2022-09-02T19:15:13.238Z,231.30
2022-09-02T19:17:40.123Z,203.35
2022-09-02T19:20:07.986Z,204.48
2022-09-02T19:22:41.816Z,201.10
2022-09-02T19:25:17.719Z,188.02
2022-09-02T19:27:47.995Z,189.63
2022-09-02T19:30:22.194Z,194.88
2022-09-02T19:35:21.460Z,154.70
2022-09-02T19:37:51.639Z,168.45
2022-09-02T19:40:33.211Z,156.63
2022-09-02T19:43:05.611Z,150.00
2022-09-02T19:45:37.479Z,141.82
2022-09-02T19:48:08.070Z,148.30
2022-09-02T19:50:38.220Z,138.07
2022-09-02T19:53:04.915Z,142.23
2022-09-02T19:55:33.781Z,125.97
2022-09-02T19:58:00.649Z,117.45
2022-09-02T20:00:27.969Z,111.80
2022-09-02T20:02:55.184Z,98.60
2022-09-02T20:05:24.406Z,86.47
2022-09-02T20:07:51.073Z,76.07
2022-09-02T20:10:20.544Z,65.00
2022-09-02T20:12:54.259Z,55.28
2022-09-02T20:15:20.884Z,52.22
2022-09-02T20:17:47.456Z,44.15
2022-09-02T20:20:22.734Z,46.83
2022-09-02T20:22:55.827Z,42.30
2022-09-02T20:25:30.870Z,39.22
2022-09-02T20:28:26.289Z,36.42
2022-09-02T20:31:09.924Z,32.15
2022-09-02T20:33:50.842Z,32.35
2022-09-02T20:36:40.401Z,32.58
2022-09-02T20:39:37.297Z,33.35
2022-09-02T20:42:25.402Z,31.13
2022-09-02T20:45:11.658Z,32.13
2022-09-02T20:47:53.653Z,31.58
2022-09-02T20:50:54.826Z,27.90
2022-09-02T20:53:37.490Z,23.67
2022-09-02T20:56:19.251Z,22.15
2022-09-02T20:59:03.243Z,18.00
2022-09-02T21:01:35.541Z,14.90
2022-09-02T21:04:20.769Z,12.55
2022-09-02T21:07:11.203Z,8.00
2022-09-02T21:09:49.131Z,12.30
2022-09-02T21:12:59.286Z,5.05
2022-09-02T21:15:30.937Z,4.68
2022-09-02T21:18:26.294Z,3.97
2022-09-02T21:20:52.739Z,5.13
2022-09-02T21:23:32.091Z,4.40
2022-09-02T21:26:06.977Z,4.05
2022-09-02T21:28:42.126Z,6.10
2022-09-02T21:31:16.958Z,5.90
2022-09-02T21:33:45.486Z,7.20
2022-09-02T21:36:17.592Z,6.25
2022-09-02T21:38:45.721Z,6.05
2022-09-02T21:41:40.999Z,6.78
2022-09-02T21:44:34.490Z,7.15
2022-09-02T21:47:21.942Z,9.95
2022-09-02T21:50:10.028Z,10.07
2022-09-02T21:53:16.802Z,8.55
2022-09-02T21:56:11.274Z,13.00
2022-09-02T21:59:22.713Z,7.93
2022-09-02T22:02:00.259Z,8.23
2022-09-02T22:04:45.319Z,6.35
2022-09-02T22:07:22.435Z,6.90
2022-09-02T22:10:31.289Z,5.25
2022-09-02T22:13:01.208Z,4.28
2022-09-02T22:15:55.864Z,9.68
2022-09-02T22:19:02.346Z,7.35
2022-09-02T22:21:53.890Z,5.72
2022-09-02T22:24:28.453Z,6.50
2022-09-02T22:27:22.310Z,6.85
2022-09-02T22:30:27.682Z,3.53
2022-09-02T22:33:11.232Z,4.22
2022-09-02T22:35:54.109Z,9.07
2022-09-02T22:38:33.335Z,4.40
2022-09-02T22:41:50.803Z,4.95
2022-09-02T22:44:20.179Z,8.23
2022-09-02T22:47:13.670Z,8.63
2022-09-02T22:50:20.267Z,6.00
2022-09-02T22:52:54.491Z,5.88
2022-09-02T22:55:26.527Z,5.13
2022-09-02T22:58:07.545Z,4.30
2022-09-02T23:00:53.817Z,4.38
2022-09-02T23:04:15.838Z,4.68
2022-09-02T23:06:44.827Z,5.72
2022-09-02T23:09:13.858Z,5.85
2022-09-02T23:12:03.562Z,4.57
2022-09-02T23:14:59.935Z,4.47
2022-09-02T23:17:41.725Z,5.45
2022-09-02T23:20:49.783Z,5.68
2022-09-02T23:23:39.929Z,4.35
2022-09-02T23:26:43.057Z,5.38
2022-09-02T23:29:29.589Z,8.27
2022-09-02T23:32:08.645Z,4.43
2022-09-02T23:34:51.638Z,3.85
2022-09-02T23:37:45.795Z,4.30
2022-09-02T23:40:25.956Z,4.65
2022-09-02T23:42:53.511Z,5.28
2022-09-02T23:45:27.215Z,6.10
2022-09-02T23:47:56.569Z,3.60
2022-09-02T23:51:02.827Z,6.40
2022-09-02T23:53:37.379Z,6.00
2022-09-02T23:58:58.151Z,3.72
